Time;durP1;ratioP1;P1;durP2;ratioP2;P2;SDS_P1;SDS_P2;PMS_P1;PMS_P2;Temp;Humidity;BMP_temperature;BMP_pressure;BME280_temperature;BME280_humidity;BME280_pressure;Samples;Min_cycle;Max_cycle;Signal;HPM_P1;HPM_P2
2022/11/08 00:01:57;;;;;;;34.53;17.38;;;4.40;99.90;;;;;;5024553;28;20060;-93
2022/11/08 00:04:27;;;;;;;31.55;18.48;;;4.30;99.90;;;;;;5013561;28;20479;-90
2022/11/08 00:15:07;;;;;;;34.92;17.33;;;3.90;99.90;;;;;;5039291;28;20049;-87
2022/11/08 00:17:33;;;;;;;36.58;19.92;;;3.80;99.90;;;;;;5016548;28;20022;-87
2022/11/08 00:19:59;;;;;;;36.83;17.77;;;3.80;99.90;;;;;;5021530;28;20026;-87
2022/11/08 00:22:25;;;;;;;45.03;21.45;;;3.80;99.90;;;;;;5029973;28;20104;-85
2022/11/08 00:24:50;;;;;;;35.45;17.17;;;3.90;99.90;;;;;;5008525;28;20461;-85
2022/11/08 00:27:21;;;;;;;38.95;19.25;;;3.80;99.90;;;;;;5017261;28;20033;-85
2022/11/08 00:29:48;;;;;;;41.30;18.60;;;3.80;99.90;;;;;;4999793;28;20026;-88
2022/11/08 00:32:19;;;;;;;37.80;19.48;;;3.80;99.90;;;;;;5017930;28;20021;-86
2022/11/08 00:34:47;;;;;;;41.08;18.67;;;3.70;99.90;;;;;;5015610;28;20415;-87
2022/11/08 00:37:14;;;;;;;45.50;18.33;;;3.70;99.90;;;;;;5010024;28;20030;-84
2022/11/08 00:39:40;;;;;;;35.70;18.85;;;3.80;99.90;;;;;;5019072;28;20025;-84
2022/11/08 00:42:06;;;;;;;36.38;19.55;;;3.70;99.90;;;;;;5015253;28;20037;-83
2022/11/08 00:44:32;;;;;;;40.55;20.40;;;3.80;99.90;;;;;;4997708;28;20025;-83
2022/11/08 00:46:58;;;;;;;34.60;16.52;;;3.80;99.90;;;;;;5014813;28;20021;-82
2022/11/08 00:49:23;;;;;;;37.28;20.90;;;3.80;99.90;;;;;;5015281;28;20105;-84
2022/11/08 00:51:49;;;;;;;32.85;18.83;;;3.80;99.90;;;;;;5019400;28;20375;-85
2022/11/08 00:54:18;;;;;;;44.05;21.73;;;3.80;99.90;;;;;;5000417;28;20492;-84
2022/11/08 00:56:45;;;;;;;41.67;19.60;;;3.70;99.90;;;;;;4995252;28;20495;-87
2022/11/08 00:59:14;;;;;;;35.80;17.13;;;3.80;99.90;;;;;;4996044;28;20022;-84
2022/11/08 01:01:40;;;;;;;38.45;18.98;;;3.80;99.90;;;;;;5007988;28;20538;-83
2022/11/08 01:04:07;;;;;;;33.78;17.23;;;3.80;99.90;;;;;;5008589;28;20050;-82
2022/11/08 01:06:33;;;;;;;40.25;21.30;;;3.90;99.90;;;;;;5008619;28;20026;-84
2022/11/08 01:08:59;;;;;;;36.05;18.83;;;3.80;99.90;;;;;;4997150;28;20023;-83
2022/11/08 01:11:25;;;;;;;37.00;19.08;;;3.80;99.90;;;;;;4994428;28;20034;-86
2022/11/08 01:13:54;;;;;;;41.15;20.35;;;3.90;99.90;;;;;;4995385;28;20068;-84
2022/11/08 01:16:23;;;;;;;39.85;20.48;;;3.80;99.90;;;;;;5000248;28;20038;-84
2022/11/08 01:18:51;;;;;;;40.92;20.80;;;3.80;99.90;;;;;;5015417;28;20022;-84
2022/11/08 01:21:17;;;;;;;50.08;21.35;;;3.90;99.90;;;;;;5009945;28;20023;-82
2022/11/08 01:23:44;;;;;;;49.13;23.63;;;3.90;99.90;;;;;;5011346;28;20023;-85
2022/11/08 01:26:13;;;;;;;39.28;21.80;;;4.00;99.90;;;;;;5003302;28;20529;-82
2022/11/08 01:28:39;;;;;;;45.88;21.88;;;4.00;99.90;;;;;;5006425;28;20035;-83
2022/11/08 01:31:10;;;;;;;42.13;21.60;;;4.10;99.90;;;;;;4997169;28;20149;-85
2022/11/08 01:33:36;;;;;;;41.88;22.98;;;4.10;99.90;;;;;;4995527;28;20045;-84
2022/11/08 01:36:08;;;;;;;45.63;25.08;;;4.20;99.90;;;;;;5010238;28;20038;-86
2022/11/08 01:38:35;;;;;;;40.63;22.40;;;4.20;99.90;;;;;;4991410;28;20033;-87
2022/11/08 01:41:02;;;;;;;45.22;23.80;;;4.30;99.90;;;;;;4995792;28;20568;-87
2022/11/08 01:43:35;;;;;;;46.60;23.02;;;4.40;99.90;;;;;;5011462;28;20054;-89
2022/11/08 01:46:29;;;;;;;46.08;22.35;;;4.40;99.90;;;;;;5017227;28;20049;-88
2022/11/08 01:49:17;;;;;;;37.42;20.50;;;4.50;99.90;;;;;;5015033;28;20023;-84
2022/11/08 01:52:01;;;;;;;42.42;21.10;;;4.50;99.90;;;;;;5008655;28;20022;-85
2022/11/08 01:54:39;;;;;;;43.90;20.77;;;4.40;99.90;;;;;;4997390;28;20045;-84
2022/11/08 01:57:09;;;;;;;36.63;19.17;;;4.40;99.90;;;;;;4994546;28;20392;-83
2022/11/08 01:59:39;;;;;;;39.45;20.00;;;4.40;99.90;;;;;;4994457;28;20029;-84
2022/11/08 02:02:06;;;;;;;46.05;22.13;;;4.30;99.90;;;;;;4994193;28;20136;-85
2022/11/08 02:04:32;;;;;;;36.05;19.95;;;4.30;99.90;;;;;;4994640;28;20025;-86
2022/11/08 02:06:59;;;;;;;37.00;17.40;;;4.40;99.90;;;;;;4992986;28;20073;-84
2022/11/08 02:09:26;;;;;;;43.67;21.73;;;4.30;99.90;;;;;;4993261;28;20030;-85
2022/11/08 02:11:53;;;;;;;43.55;20.40;;;4.20;99.90;;;;;;5004718;28;20052;-84
2022/11/08 02:14:19;;;;;;;41.08;20.38;;;4.20;99.90;;;;;;4993308;28;20113;-84
2022/11/08 02:16:45;;;;;;;37.95;19.38;;;4.20;99.90;;;;;;4995569;28;20054;-83
2022/11/08 02:19:23;;;;;;;45.00;21.98;;;4.20;99.90;;;;;;5025473;28;20049;-87
2022/11/08 02:21:51;;;;;;;;;;;4.10;99.90;;;;;;5007144;28;20038;-84
2022/11/08 02:24:17;;;;;;;32.05;16.33;;;4.10;99.90;;;;;;4996107;28;19906;-85
2022/11/08 02:26:45;;;;;;;47.83;21.23;;;4.00;99.90;;;;;;5012354;28;20026;-85
2022/11/08 02:29:22;;;;;;;;;;;3.90;99.90;;;;;;5006568;28;20044;-84
2022/11/08 02:31:48;;;;;;;35.85;19.83;;;3.90;99.90;;;;;;5004092;28;19917;-84
2022/11/08 02:34:16;;;;;;;47.60;23.92;;;4.00;99.90;;;;;;4998645;28;20030;-85
2022/11/08 02:36:45;;;;;;;43.50;21.10;;;4.10;99.90;;;;;;5021379;28;20030;-84
2022/11/08 02:39:10;;;;;;;47.78;21.58;;;4.10;99.90;;;;;;4995619;28;20031;-85
2022/11/08 02:41:36;;;;;;;49.83;23.83;;;4.20;99.90;;;;;;4999490;28;20056;-85
2022/11/08 02:44:02;;;;;;;43.90;23.13;;;4.20;99.90;;;;;;5003629;28;20047;-84
2022/11/08 02:46:28;;;;;;;38.20;20.55;;;4.30;99.90;;;;;;5004980;28;20030;-85
2022/11/08 02:48:54;;;;;;;31.42;17.35;;;4.30;99.90;;;;;;5000834;28;20029;-85
2022/11/08 02:51:20;;;;;;;45.45;23.60;;;4.30;99.90;;;;;;5004060;28;20066;-85
2022/11/08 02:53:45;;;;;;;37.22;18.23;;;4.30;99.90;;;;;;5014015;28;20122;-86
2022/11/08 02:56:11;;;;;;;40.53;21.05;;;4.30;99.90;;;;;;5012863;28;20034;-83
2022/11/08 02:58:37;;;;;;;42.38;20.90;;;4.30;99.90;;;;;;5012741;28;20438;-85
2022/11/08 03:01:03;;;;;;;36.63;21.00;;;4.30;99.90;;;;;;4990761;28;20397;-85
2022/11/08 03:03:29;;;;;;;42.28;23.05;;;4.30;99.90;;;;;;4992565;28;20032;-86
2022/11/08 03:05:58;;;;;;;36.78;22.13;;;4.40;99.90;;;;;;4991818;28;20130;-85
2022/11/08 03:08:24;;;;;;;42.97;20.27;;;4.30;99.90;;;;;;4993962;28;20117;-86
2022/11/08 03:10:49;;;;;;;35.42;20.13;;;4.30;99.90;;;;;;5009373;28;20055;-86
2022/11/08 03:13:17;;;;;;;39.72;21.98;;;4.30;99.90;;;;;;5003018;28;20427;-85
2022/11/08 03:15:43;;;;;;;36.22;19.20;;;4.30;99.90;;;;;;4991595;28;20105;-84
2022/11/08 03:18:09;;;;;;;35.58;18.42;;;4.30;99.90;;;;;;5001173;28;20022;-85
2022/11/08 03:20:34;;;;;;;40.10;21.25;;;4.30;99.90;;;;;;5009344;28;20028;-84
2022/11/08 03:23:03;;;;;;;45.33;22.77;;;4.30;99.90;;;;;;4999227;28;20026;-85
2022/11/08 03:25:29;;;;;;;38.88;18.80;;;4.40;99.90;;;;;;4994148;28;20102;-85
2022/11/08 03:27:55;;;;;;;38.92;20.48;;;4.40;99.90;;;;;;4992901;28;20030;-85
2022/11/08 03:30:21;;;;;;;37.35;20.05;;;4.30;99.90;;;;;;4993618;28;20026;-86
2022/11/08 03:32:48;;;;;;;41.28;21.58;;;4.30;99.90;;;;;;5002002;28;20022;-85
2022/11/08 03:35:14;;;;;;;46.42;23.50;;;4.30;99.90;;;;;;5006970;28;20785;-86
2022/11/08 03:37:40;;;;;;;38.88;21.27;;;4.30;99.90;;;;;;5005742;28;20057;-85
2022/11/08 03:40:06;;;;;;;38.65;19.98;;;4.20;99.90;;;;;;5014254;28;20027;-84
2022/11/08 03:42:33;;;;;;;40.25;20.58;;;4.30;99.90;;;;;;5001828;28;20550;-81
2022/11/08 03:44:59;;;;;;;42.90;22.45;;;4.20;99.90;;;;;;5001339;28;20783;-83
2022/11/08 03:47:26;;;;;;;37.28;19.80;;;4.20;99.90;;;;;;5002411;28;20053;-83
2022/11/08 03:49:52;;;;;;;39.30;23.50;;;4.20;99.90;;;;;;5009354;28;20022;-83
2022/11/08 03:52:17;;;;;;;34.75;17.95;;;4.10;99.90;;;;;;5001018;28;20053;-85
2022/11/08 03:54:43;;;;;;;34.25;19.45;;;4.10;99.90;;;;;;5011549;28;20057;-87
2022/11/08 03:57:11;;;;;;;35.22;20.50;;;4.10;99.90;;;;;;5013497;28;20486;-86
2022/11/08 03:59:36;;;;;;;27.85;17.25;;;4.20;99.90;;;;;;4994832;28;20029;-84
2022/11/08 04:02:02;;;;;;;31.80;18.45;;;4.20;99.90;;;;;;5020093;28;20029;-87
2022/11/08 04:04:28;;;;;;;33.53;17.73;;;4.20;99.90;;;;;;5017067;28;20023;-86
2022/11/08 04:06:54;;;;;;;33.28;18.27;;;4.30;99.90;;;;;;5012150;28;20022;-86
2022/11/08 04:09:21;;;;;;;34.05;17.98;;;4.30;99.90;;;;;;5016437;28;20084;-86
2022/11/08 04:17:15;;;;;;;28.42;15.02;;;4.40;99.90;;;;;;5018154;28;20115;-85
2022/11/08 04:22:26;;;;;;;28.58;16.60;;;4.40;99.90;;;;;;5012097;28;20415;-89
2022/11/08 04:24:52;;;;;;;28.00;16.45;;;4.40;99.90;;;;;;5016584;28;20032;-88
2022/11/08 04:27:17;;;;;;;26.05;14.32;;;4.40;99.90;;;;;;5016862;28;20022;-88
2022/11/08 04:29:43;;;;;;;28.77;15.85;;;4.50;99.90;;;;;;5024585;28;20030;-88
2022/11/08 04:32:12;;;;;;;27.05;17.67;;;4.50;99.90;;;;;;5016737;28;20076;-85
2022/11/08 04:34:38;;;;;;;27.15;15.27;;;4.60;99.90;;;;;;5016055;28;20129;-86
2022/11/08 04:37:04;;;;;;;31.67;16.83;;;4.60;99.90;;;;;;5008996;28;20017;-87
2022/11/08 04:39:30;;;;;;;26.30;15.40;;;4.60;99.90;;;;;;4999023;28;20030;-87
2022/11/08 04:41:56;;;;;;;26.73;16.67;;;4.70;99.90;;;;;;5017629;28;20112;-85
2022/11/08 04:44:22;;;;;;;26.10;15.82;;;4.70;99.90;;;;;;5015604;28;20026;-86
2022/11/08 04:46:47;;;;;;;25.25;14.65;;;4.70;99.90;;;;;;5018319;28;20033;-88
2022/11/08 04:49:13;;;;;;;25.35;18.02;;;4.70;99.90;;;;;;5005105;28;20033;-86
2022/11/08 04:51:42;;;;;;;26.83;16.83;;;4.70;99.90;;;;;;5032271;28;20033;-87
2022/11/08 04:54:10;;;;;;;27.00;16.95;;;4.80;99.90;;;;;;5017441;28;20085;-86
2022/11/08 04:56:36;;;;;;;27.73;13.98;;;4.80;99.90;;;;;;5023692;28;20053;-85
2022/11/08 04:59:02;;;;;;;23.20;14.18;;;4.80;99.90;;;;;;5007286;28;20026;-85
2022/11/08 05:01:30;;;;;;;25.88;15.13;;;4.80;99.90;;;;;;4996982;28;20052;-87
2022/11/08 05:03:57;;;;;;;27.35;14.02;;;4.80;99.90;;;;;;4997852;28;20023;-86
2022/11/08 05:06:26;;;;;;;24.02;15.20;;;4.80;99.90;;;;;;4997114;28;20033;-88
2022/11/08 05:08:55;;;;;;;21.35;13.75;;;4.90;99.90;;;;;;4996659;28;20018;-88
2022/11/08 05:11:24;;;;;;;23.48;14.20;;;4.80;99.90;;;;;;5000963;28;20057;-86
2022/11/08 05:13:50;;;;;;;19.75;14.07;;;4.90;99.90;;;;;;4998877;28;20074;-87
2022/11/08 05:16:19;;;;;;;23.38;13.18;;;4.90;99.90;;;;;;5023701;28;20065;-85
2022/11/08 05:18:45;;;;;;;20.55;14.02;;;4.90;99.90;;;;;;5019498;28;20033;-85
2022/11/08 05:23:59;;;;;;;21.67;14.00;;;4.90;99.90;;;;;;5006609;28;20017;-85
2022/11/08 05:26:26;;;;;;;19.73;12.57;;;4.90;99.90;;;;;;5010143;28;20740;-84
2022/11/08 05:28:52;;;;;;;22.55;15.18;;;5.00;99.90;;;;;;4996301;28;20018;-87
2022/11/08 05:31:22;;;;;;;20.27;12.35;;;5.00;99.90;;;;;;4996490;28;20072;-89
2022/11/08 05:33:48;;;;;;;22.60;13.73;;;4.90;99.90;;;;;;4996259;28;20034;-88
2022/11/08 05:36:15;;;;;;;23.10;14.25;;;4.80;99.90;;;;;;4994505;28;20416;-88
2022/11/08 05:38:41;;;;;;;21.48;14.15;;;4.80;99.90;;;;;;4995870;28;20046;-88
2022/11/08 05:41:11;;;;;;;26.45;14.73;;;4.80;99.90;;;;;;5014157;28;20438;-86
2022/11/08 05:43:38;;;;;;;25.35;15.13;;;4.80;99.90;;;;;;5006666;28;20407;-87
2022/11/08 05:46:06;;;;;;;23.42;14.10;;;4.80;99.90;;;;;;5013772;28;20025;-87
2022/11/08 05:48:32;;;;;;;22.35;12.98;;;4.80;99.90;;;;;;5016071;28;20026;-85
2022/11/08 05:50:59;;;;;;;21.27;12.25;;;4.80;99.90;;;;;;5001158;28;20034;-88
2022/11/08 05:53:25;;;;;;;23.42;13.60;;;4.80;99.90;;;;;;5010608;28;20079;-86
2022/11/08 05:56:01;;;;;;;23.58;14.80;;;4.80;99.90;;;;;;5020066;28;20042;-89
2022/11/08 05:58:27;;;;;;;26.65;14.23;;;4.80;99.90;;;;;;5039742;28;20037;-88
2022/11/08 06:01:19;;;;;;;23.33;15.18;;;4.80;99.90;;;;;;5034558;28;20026;-86
2022/11/08 06:03:47;;;;;;;21.90;13.35;;;4.80;99.90;;;;;;5023742;28;20069;-87
2022/11/08 06:06:16;;;;;;;22.33;14.40;;;4.80;99.90;;;;;;5026632;28;20033;-89
2022/11/08 06:08:43;;;;;;;18.38;11.77;;;4.90;99.90;;;;;;5019069;28;20134;-87
2022/11/08 06:11:12;;;;;;;18.90;12.07;;;4.90;99.90;;;;;;5013593;28;20507;-88
2022/11/08 06:13:38;;;;;;;25.95;13.50;;;4.80;99.90;;;;;;4996089;28;20041;-86
2022/11/08 06:16:06;;;;;;;21.48;12.93;;;4.80;99.90;;;;;;4999311;28;20026;-88
2022/11/08 06:18:34;;;;;;;18.75;11.73;;;4.80;99.90;;;;;;5001183;28;20105;-92
2022/11/08 06:21:01;;;;;;;20.02;11.82;;;4.80;99.90;;;;;;4994577;28;20411;-88
2022/11/08 06:23:28;;;;;;;22.77;12.35;;;4.90;99.90;;;;;;5012608;28;20026;-88
2022/11/08 06:25:54;;;;;;;25.02;14.18;;;4.80;99.90;;;;;;5013600;28;20026;-88
2022/11/08 06:28:20;;;;;;;26.30;15.33;;;4.90;99.90;;;;;;4999332;28;20036;-87
2022/11/08 06:30:47;;;;;;;22.67;14.45;;;4.90;99.90;;;;;;5000461;28;20032;-86
2022/11/08 06:33:12;;;;;;;21.45;13.52;;;4.90;99.90;;;;;;5007715;28;20031;-86
2022/11/08 06:35:38;;;;;;;25.50;13.90;;;4.90;99.90;;;;;;4999296;28;20033;-91
2022/11/08 06:38:05;;;;;;;22.75;14.38;;;4.80;99.90;;;;;;5005736;28;20030;-87
2022/11/08 06:40:31;;;;;;;26.77;16.52;;;4.90;99.90;;;;;;5002257;28;20026;-87
2022/11/08 06:42:58;;;;;;;31.02;16.23;;;4.90;99.90;;;;;;4994949;28;20435;-86
2022/11/08 06:45:24;;;;;;;27.73;16.08;;;4.90;99.90;;;;;;4994334;28;20023;-86
2022/11/08 06:47:59;;;;;;;24.50;17.03;;;4.90;99.90;;;;;;4993634;28;20027;-87
2022/11/08 06:50:29;;;;;;;27.02;14.98;;;5.00;99.90;;;;;;4999333;28;20050;-87
2022/11/08 06:52:56;;;;;;;26.67;15.80;;;5.00;99.90;;;;;;4996299;28;20034;-87
2022/11/08 06:55:22;;;;;;;36.17;23.90;;;5.00;99.90;;;;;;5016642;28;20033;-86
2022/11/08 06:57:48;;;;;;;31.70;19.63;;;5.00;99.90;;;;;;4999461;28;20036;-88
2022/11/08 07:00:15;;;;;;;30.63;17.67;;;5.00;99.90;;;;;;5016834;28;20026;-86
2022/11/08 07:02:43;;;;;;;29.63;14.93;;;5.10;99.90;;;;;;4997047;28;20032;-90
2022/11/08 07:05:12;;;;;;;34.00;19.52;;;5.00;99.90;;;;;;5014105;28;20081;-87
2022/11/08 07:07:38;;;;;;;29.08;17.58;;;5.00;99.90;;;;;;5000507;28;20686;-84
2022/11/08 07:10:05;;;;;;;26.35;17.33;;;5.10;99.90;;;;;;5026002;28;20034;-87
2022/11/08 07:12:33;;;;;;;31.83;17.48;;;5.10;99.90;;;;;;5003830;28;20036;-87
2022/11/08 07:14:59;;;;;;;30.05;17.85;;;5.10;99.90;;;;;;5026405;28;20225;-86
2022/11/08 07:17:24;;;;;;;33.67;18.75;;;5.10;99.90;;;;;;5026820;28;20022;-88
2022/11/08 07:19:50;;;;;;;32.00;19.88;;;5.10;99.90;;;;;;5017673;28;20444;-87
2022/11/08 07:22:17;;;;;;;26.52;16.73;;;5.20;99.90;;;;;;5002405;28;20045;-87
2022/11/08 07:24:42;;;;;;;32.03;18.55;;;5.10;99.90;;;;;;5001083;28;20104;-89
2022/11/08 07:27:08;;;;;;;34.45;18.48;;;5.10;99.90;;;;;;5018532;28;20487;-90
2022/11/08 07:29:34;;;;;;;30.75;18.63;;;5.10;99.90;;;;;;5016447;28;20093;-88
2022/11/08 07:32:00;;;;;;;33.58;18.85;;;5.10;99.90;;;;;;5025323;28;20026;-91
2022/11/08 07:34:30;;;;;;;34.15;20.25;;;5.10;99.90;;;;;;5025000;28;20040;-89
2022/11/08 07:36:57;;;;;;;38.30;18.33;;;5.10;99.90;;;;;;4998148;28;20034;-87
2022/11/08 07:39:23;;;;;;;29.50;16.50;;;5.10;99.90;;;;;;5000448;28;20022;-86
2022/11/08 07:41:48;;;;;;;33.10;19.63;;;5.20;99.90;;;;;;5015405;28;20185;-87
2022/11/08 07:44:14;;;;;;;36.97;21.85;;;5.20;99.90;;;;;;5003392;28;20447;-85
2022/11/08 07:46:40;;;;;;;33.90;19.65;;;5.30;99.90;;;;;;5001247;28;20153;-88
2022/11/08 07:49:06;;;;;;;25.80;16.67;;;5.30;99.90;;;;;;5003010;28;20030;-89
2022/11/08 07:51:32;;;;;;;31.88;19.77;;;5.30;99.90;;;;;;5023981;28;20026;-86
2022/11/08 07:53:58;;;;;;;38.17;22.38;;;5.30;99.90;;;;;;5029307;28;20042;-87
2022/11/08 07:56:24;;;;;;;34.50;18.88;;;5.30;99.90;;;;;;5037743;28;20042;-88
2022/11/08 07:58:52;;;;;;;32.33;18.15;;;5.40;99.90;;;;;;5010262;28;20028;-90
2022/11/08 08:01:19;;;;;;;34.60;19.73;;;5.40;99.90;;;;;;4997262;28;20026;-86
2022/11/08 08:03:54;;;;;;;30.15;17.25;;;5.40;99.90;;;;;;5014013;28;20014;-85
2022/11/08 08:06:23;;;;;;;30.73;20.23;;;5.40;99.90;;;;;;5013428;28;20106;-88
2022/11/08 08:08:49;;;;;;;34.28;19.17;;;5.40;99.90;;;;;;5020435;28;20025;-85
2022/11/08 08:11:15;;;;;;;34.45;17.95;;;5.50;99.90;;;;;;5029104;28;20026;-85
2022/11/08 08:13:41;;;;;;;35.13;20.38;;;5.50;99.90;;;;;;5017714;28;20025;-85
2022/11/08 08:16:07;;;;;;;34.95;21.70;;;5.50;99.90;;;;;;5019588;28;20041;-87
2022/11/08 08:18:33;;;;;;;29.42;18.77;;;5.50;99.90;;;;;;5023846;28;20022;-83
2022/11/08 08:20:59;;;;;;;31.15;17.60;;;5.50;99.90;;;;;;4992231;28;20030;-84
2022/11/08 08:23:25;;;;;;;26.83;17.17;;;5.60;99.90;;;;;;5028543;28;20038;-84
2022/11/08 08:25:51;;;;;;;24.55;16.38;;;5.60;99.90;;;;;;5031826;28;20499;-89
2022/11/08 08:28:17;;;;;;;23.85;15.52;;;5.60;99.90;;;;;;5027259;28;20090;-86
2022/11/08 08:30:43;;;;;;;28.45;16.60;;;5.60;99.90;;;;;;5023808;28;20029;-87
2022/11/08 08:33:16;;;;;;;26.15;17.23;;;5.60;99.90;;;;;;5023147;28;20109;-87
2022/11/08 08:35:45;;;;;;;25.38;15.45;;;5.70;99.90;;;;;;5002019;28;20026;-87
2022/11/08 08:38:12;;;;;;;25.80;15.88;;;5.70;99.90;;;;;;5004816;28;20017;-87
2022/11/08 08:40:38;;;;;;;27.45;17.80;;;5.70;99.90;;;;;;5016765;28;20026;-88
2022/11/08 08:43:05;;;;;;;23.65;15.75;;;5.70;99.90;;;;;;4982690;28;20446;-87
2022/11/08 08:45:32;;;;;;;24.17;15.40;;;5.70;99.90;;;;;;4999526;28;20029;-87
2022/11/08 08:47:59;;;;;;;22.20;13.90;;;5.70;99.90;;;;;;5025630;28;20045;-85
2022/11/08 08:50:27;;;;;;;23.08;14.32;;;5.70;99.90;;;;;;5018134;28;20030;-88
2022/11/08 08:53:01;;;;;;;27.23;15.55;;;5.70;99.90;;;;;;5000472;28;20379;-86
2022/11/08 08:55:30;;;;;;;22.75;12.35;;;5.70;99.90;;;;;;5045875;28;20553;-86
2022/11/08 08:57:56;;;;;;;18.25;11.50;;;5.80;99.90;;;;;;5037327;28;20115;-87
2022/11/08 09:00:23;;;;;;;25.65;14.30;;;5.80;99.90;;;;;;5032254;28;20025;-87
2022/11/08 09:02:49;;;;;;;21.83;13.02;;;5.80;99.90;;;;;;5032797;28;20010;-86
2022/11/08 09:05:15;;;;;;;19.85;12.90;;;5.80;99.90;;;;;;5018679;28;20029;-83
2022/11/08 09:07:41;;;;;;;19.67;12.68;;;5.80;99.90;;;;;;5019253;28;20099;-84
2022/11/08 09:10:09;;;;;;;20.70;12.82;;;5.70;99.90;;;;;;5020144;28;20026;-85
2022/11/08 09:12:35;;;;;;;17.77;12.25;;;5.80;99.90;;;;;;5028258;28;20018;-83
2022/11/08 09:15:02;;;;;;;21.63;12.70;;;5.80;99.90;;;;;;5040791;28;20044;-87
2022/11/08 09:17:28;;;;;;;19.43;12.27;;;5.80;99.90;;;;;;5007616;28;20018;-86
2022/11/08 09:19:54;;;;;;;18.75;10.82;;;5.90;99.90;;;;;;5015874;28;20114;-87
2022/11/08 09:22:21;;;;;;;23.35;14.30;;;5.90;99.90;;;;;;5015803;28;20380;-85
2022/11/08 09:24:46;;;;;;;19.42;13.13;;;5.90;99.90;;;;;;5029702;28;20022;-85
2022/11/08 09:27:12;;;;;;;19.90;13.00;;;5.90;99.90;;;;;;5007211;28;20380;-86
2022/11/08 09:29:38;;;;;;;20.45;11.88;;;6.00;99.90;;;;;;5024584;28;20022;-85
2022/11/08 09:32:04;;;;;;;19.00;12.02;;;6.00;99.90;;;;;;5019495;28;20010;-86
2022/11/08 09:34:30;;;;;;;23.17;13.98;;;6.00;99.90;;;;;;5009941;28;20502;-87
2022/11/08 09:36:56;;;;;;;18.08;10.90;;;6.00;99.90;;;;;;5015981;28;20033;-87
2022/11/08 09:39:28;;;;;;;18.92;11.68;;;6.10;99.90;;;;;;5015800;28;20044;-85
2022/11/08 09:42:31;;;;;;;21.08;12.05;;;6.10;99.90;;;;;;5015669;28;20036;-89
2022/11/08 09:45:10;;;;;;;15.30;10.60;;;6.10;99.90;;;;;;5009681;28;20085;-88
2022/11/08 09:47:41;;;;;;;20.05;11.65;;;6.10;99.90;;;;;;5014627;28;20037;-85
2022/11/08 09:50:17;;;;;;;16.30;10.98;;;6.10;99.90;;;;;;5031715;28;20029;-84
2022/11/08 09:52:48;;;;;;;17.13;11.48;;;6.10;99.90;;;;;;5003995;28;20020;-87
2022/11/08 09:55:14;;;;;;;17.30;11.25;;;6.10;99.90;;;;;;4986043;28;20117;-89
2022/11/08 09:58:01;;;;;;;17.42;11.27;;;6.10;99.90;;;;;;5013028;28;20396;-87
2022/11/08 10:00:27;;;;;;;17.38;11.45;;;6.10;99.90;;;;;;5014184;28;20078;-84
2022/11/08 10:02:53;;;;;;;19.15;13.20;;;6.00;99.90;;;;;;5016163;28;20022;-86
2022/11/08 10:05:20;;;;;;;18.23;12.32;;;5.90;99.90;;;;;;5015357;28;20052;-87
2022/11/08 10:07:56;;;;;;;18.95;12.75;;;5.90;99.90;;;;;;5015710;28;20036;-85
2022/11/08 10:10:22;;;;;;;18.70;12.10;;;5.80;99.90;;;;;;4982712;28;20058;-84
2022/11/08 10:13:36;;;;;;;14.65;10.73;;;5.80;99.90;;;;;;5001322;28;20373;-87
2022/11/08 10:16:02;;;;;;;16.50;11.05;;;5.80;99.90;;;;;;4907370;29;20129;-83
2022/11/08 10:19:06;;;;;;;19.65;11.35;;;5.80;99.90;;;;;;4929272;29;20028;-86
2022/11/08 10:21:44;;;;;;;19.65;11.77;;;5.70;99.90;;;;;;4966198;28;20033;-85
2022/11/08 10:24:34;;;;;;;15.60;11.07;;;5.70;99.90;;;;;;5014650;28;20169;-85
2022/11/08 10:27:01;;;;;;;14.48;11.20;;;5.70;99.90;;;;;;5016294;28;20018;-87
2022/11/08 10:29:42;;;;;;;17.65;12.05;;;5.70;99.90;;;;;;5015891;28;20026;-86
2022/11/08 10:32:20;;;;;;;19.55;12.13;;;5.70;99.90;;;;;;5017729;28;20152;-90
2022/11/08 10:35:02;;;;;;;19.10;11.50;;;5.70;99.90;;;;;;5029097;28;20037;-89
2022/11/08 10:37:31;;;;;;;18.00;10.98;;;5.70;99.90;;;;;;5020697;28;20083;-91
2022/11/08 10:40:12;;;;;;;14.27;9.75;;;5.80;99.90;;;;;;5049032;28;20053;-86
2022/11/08 10:42:46;;;;;;;14.45;10.65;;;5.80;99.90;;;;;;5032982;28;20117;-87
2022/11/08 10:45:12;;;;;;;19.67;11.82;;;5.70;99.90;;;;;;5023833;28;20030;-85
2022/11/08 10:47:39;;;;;;;18.02;10.10;;;5.70;99.90;;;;;;4996811;28;20073;-85
2022/11/08 10:50:16;;;;;;;15.10;10.52;;;5.70;99.90;;;;;;5017979;28;20080;-85
2022/11/08 10:52:59;;;;;;;16.48;10.65;;;5.70;99.90;;;;;;5008009;28;20482;-84
2022/11/08 10:55:37;;;;;;;15.80;9.57;;;5.80;99.90;;;;;;5020239;28;20038;-89
2022/11/08 10:58:24;;;;;;;15.13;9.45;;;5.70;99.90;;;;;;5009254;28;20029;-87
2022/11/08 11:01:04;;;;;;;18.13;9.85;;;5.60;99.90;;;;;;4996225;28;20065;-87
2022/11/08 11:03:31;;;;;;;16.40;10.40;;;5.60;99.90;;;;;;4998819;28;20395;-86
2022/11/08 11:06:02;;;;;;;15.48;9.13;;;5.60;99.90;;;;;;4999502;28;20077;-83
2022/11/08 11:08:28;;;;;;;15.88;9.68;;;5.60;99.90;;;;;;5016617;28;20026;-84
2022/11/08 11:10:55;;;;;;;18.42;10.13;;;5.60;99.90;;;;;;5009172;28;20064;-85
2022/11/08 11:13:27;;;;;;;15.83;9.77;;;5.60;99.90;;;;;;5010697;28;20045;-84
2022/11/08 11:15:58;;;;;;;14.65;7.88;;;5.70;99.90;;;;;;5013100;28;20057;-85
2022/11/08 11:18:47;;;;;;;16.42;9.10;;;5.70;99.90;;;;;;4995197;28;20117;-89
2022/11/08 11:21:19;;;;;;;11.82;7.82;;;5.70;99.90;;;;;;5017443;28;20037;-88
2022/11/08 11:23:51;;;;;;;13.00;7.45;;;5.70;99.90;;;;;;4997489;28;20021;-86
2022/11/08 11:26:27;;;;;;;13.38;7.40;;;5.70;99.90;;;;;;5014243;28;20041;-87
2022/11/08 11:29:05;;;;;;;14.25;8.30;;;5.70;99.90;;;;;;5013941;28;20037;-86
2022/11/08 11:31:39;;;;;;;10.52;6.85;;;5.80;99.90;;;;;;5013124;28;20100;-87
2022/11/08 11:34:17;;;;;;;12.85;8.07;;;5.70;99.90;;;;;;5004138;28;20033;-86
2022/11/08 11:37:14;;;;;;;12.52;7.90;;;5.80;99.90;;;;;;5013782;28;20092;-89
2022/11/08 11:39:48;;;;;;;9.90;6.63;;;5.80;99.90;;;;;;4996200;28;20084;-88
2022/11/08 11:42:23;;;;;;;10.30;7.88;;;5.80;99.90;;;;;;5011891;28;20029;-87
2022/11/08 11:45:40;;;;;;;12.38;8.05;;;5.80;99.90;;;;;;5019201;28;20030;-91
2022/11/08 11:48:31;;;;;;;14.07;7.50;;;5.80;99.90;;;;;;4925351;29;20172;-86
2022/11/08 11:51:01;;;;;;;15.95;8.00;;;5.80;99.90;;;;;;4925563;29;20028;-85
2022/11/08 11:53:40;;;;;;;16.20;8.77;;;5.80;99.90;;;;;;4938497;29;20477;-88
2022/11/08 11:56:53;;;;;;;14.35;7.97;;;5.90;99.90;;;;;;4925021;29;20039;-89
2022/11/08 11:59:41;;;;;;;11.25;6.68;;;6.00;99.90;;;;;;4916420;29;20047;-86
2022/11/08 12:02:37;;;;;;;19.00;7.90;;;5.90;99.90;;;;;;4922982;29;20042;-87
2022/11/08 12:05:18;;;;;;;12.95;7.57;;;5.90;99.90;;;;;;4933859;29;20079;-87
2022/11/08 12:08:22;;;;;;;14.65;7.75;;;5.90;99.90;;;;;;4948367;29;20035;-86
2022/11/08 12:11:04;;;;;;;10.68;6.95;;;5.90;99.90;;;;;;4913149;29;20063;-88
2022/11/08 12:13:38;;;;;;;11.90;7.07;;;5.80;99.90;;;;;;4966967;28;20117;-85
2022/11/08 12:16:10;;;;;;;12.15;7.53;;;5.90;99.90;;;;;;5001854;28;20038;-88
2022/11/08 12:19:13;;;;;;;16.15;8.70;;;5.90;99.90;;;;;;5014248;28;20112;-88
2022/11/08 12:22:11;;;;;;;10.98;7.22;;;5.90;99.90;;;;;;4984229;28;20027;-87
2022/11/08 12:25:12;;;;;;;9.50;7.45;;;5.90;99.90;;;;;;4991386;28;20026;-87
2022/11/08 12:28:10;;;;;;;12.75;6.97;;;5.90;99.90;;;;;;5014457;28;20030;-89
2022/11/08 12:30:54;;;;;;;9.73;5.88;;;5.90;99.90;;;;;;5023309;28;20030;-88
2022/11/08 12:33:23;;;;;;;10.32;6.78;;;5.80;99.90;;;;;;5011778;28;20168;-90
2022/11/08 12:36:12;;;;;;;13.00;7.63;;;5.80;99.90;;;;;;4997981;28;20061;-88
2022/11/08 12:39:16;;;;;;;8.45;6.18;;;5.80;99.90;;;;;;4998131;28;20029;-85
2022/11/08 12:42:08;;;;;;;7.60;5.10;;;5.90;99.90;;;;;;4995553;28;20421;-88
2022/11/08 12:45:14;;;;;;;6.93;5.63;;;5.90;99.90;;;;;;4959664;28;20108;-85
2022/11/08 12:48:38;;;;;;;11.27;6.57;;;5.80;99.90;;;;;;4987141;28;20077;-86
2022/11/08 12:51:48;;;;;;;14.38;5.78;;;5.80;99.90;;;;;;4987727;28;20776;-83
2022/11/08 12:54:30;;;;;;;7.72;5.60;;;5.80;99.90;;;;;;4928521;29;20044;-85
2022/11/08 12:57:01;;;;;;;7.07;5.45;;;5.80;99.90;;;;;;4923025;29;20043;-85
2022/11/08 12:59:35;;;;;;;10.68;6.05;;;5.90;99.90;;;;;;4916440;29;20031;-83
2022/11/08 13:02:13;;;;;;;8.57;5.60;;;5.90;99.90;;;;;;4920200;29;20068;-83
2022/11/08 13:04:51;;;;;;;9.63;5.13;;;5.90;99.90;;;;;;4915670;29;20060;-88
2022/11/08 13:07:21;;;;;;;9.50;5.47;;;5.90;99.90;;;;;;4936175;29;20032;-90
2022/11/08 13:09:50;;;;;;;13.73;6.75;;;6.00;99.90;;;;;;4921227;29;20035;-85
2022/11/08 13:12:48;;;;;;;11.25;5.95;;;5.90;99.90;;;;;;4919054;29;20035;-87
2022/11/08 13:15:20;;;;;;;10.55;6.03;;;5.90;99.90;;;;;;4903519;29;20054;-88
2022/11/08 13:18:10;;;;;;;11.77;6.47;;;5.80;99.90;;;;;;4916923;29;20024;-86
2022/11/08 13:20:39;;;;;;;15.27;6.13;;;5.80;99.90;;;;;;4916996;29;20486;-86